sensor_id;sensor_type;location;lat;lon;timestamp;pressure;altitude;pressure_sealevel;temperature
64904;BMP280;51401;48.882;12.598;2023-10-19T00:02:01;64148.03;;;-137.53
64904;BMP280;51401;48.882;12.598;2023-10-19T00:04:27;64148.03;;;-137.53
64904;BMP280;51401;48.882;12.598;2023-10-19T00:06:57;64148.03;;;-137.53
64904;BMP280;51401;48.882;12.598;2023-10-19T00:09:22;64148.03;;;-137.53
64904;BMP280;51401;48.882;12.598;2023-10-19T00:11:47;64150.03;;;-137.53
64904;BMP280;51401;48.882;12.598;2023-10-19T00:14:16;64148.03;;;-137.53
64904;BMP280;51401;48.882;12.598;2023-10-19T00:16:43;64152.00;;;-137.53
64904;BMP280;51401;48.882;12.598;2023-10-19T00:19:15;64148.03;;;-137.53
64904;BMP280;51401;48.882;12.598;2023-10-19T00:21:44;64148.03;;;-137.53
64904;BMP280;51401;48.882;12.598;2023-10-19T00:24:17;64148.03;;;-137.53
64904;BMP280;51401;48.882;12.598;2023-10-19T00:26:44;64148.03;;;-137.53
64904;BMP280;51401;48.882;12.598;2023-10-19T00:29:09;64148.03;;;-137.53
64904;BMP280;51401;48.882;12.598;2023-10-19T00:31:56;64154.00;;;-137.53
64904;BMP280;51401;48.882;12.598;2023-10-19T00:34:22;64150.03;;;-137.53
64904;BMP280;51401;48.882;12.598;2023-10-19T00:36:49;64148.03;;;-137.53
64904;BMP280;51401;48.882;12.598;2023-10-19T00:39:15;64150.03;;;-137.53
64904;BMP280;51401;48.882;12.598;2023-10-19T00:41:46;64148.03;;;-137.53
64904;BMP280;51401;48.882;12.598;2023-10-19T00:44:13;64144.06;;;-137.53
64904;BMP280;51401;48.882;12.598;2023-10-19T00:46:41;64146.03;;;-137.53
64904;BMP280;51401;48.882;12.598;2023-10-19T00:49:07;64148.03;;;-137.53
64904;BMP280;51401;48.882;12.598;2023-10-19T00:51:40;64144.06;;;-137.53
64904;BMP280;51401;48.882;12.598;2023-10-19T00:54:31;64148.03;;;-137.53
64904;BMP280;51401;48.882;12.598;2023-10-19T00:57:18;64148.03;;;-137.53
64904;BMP280;51401;48.882;12.598;2023-10-19T00:59:49;64150.03;;;-137.53
64904;BMP280;51401;48.882;12.598;2023-10-19T01:02:26;64148.03;;;-137.53
64904;BMP280;51401;48.882;12.598;2023-10-19T01:04:53;64148.03;;;-137.53
64904;BMP280;51401;48.882;12.598;2023-10-19T01:07:25;64150.03;;;-137.53
64904;BMP280;51401;48.882;12.598;2023-10-19T01:10:02;64144.06;;;-137.53
64904;BMP280;51401;48.882;12.598;2023-10-19T01:12:30;64144.06;;;-137.53
64904;BMP280;51401;48.882;12.598;2023-10-19T01:15:16;64150.03;;;-137.53
64904;BMP280;51401;48.882;12.598;2023-10-19T01:17:44;64146.03;;;-137.53
64904;BMP280;51401;48.882;12.598;2023-10-19T01:20:14;64144.06;;;-137.53
64904;BMP280;51401;48.882;12.598;2023-10-19T01:25:30;64150.03;;;-137.53
64904;BMP280;51401;48.882;12.598;2023-10-19T01:28:07;64148.03;;;-137.53
64904;BMP280;51401;48.882;12.598;2023-10-19T01:30:33;64146.03;;;-137.53
64904;BMP280;51401;48.882;12.598;2023-10-19T01:33:03;64148.03;;;-137.53
64904;BMP280;51401;48.882;12.598;2023-10-19T01:35:29;64146.03;;;-137.53
64904;BMP280;51401;48.882;12.598;2023-10-19T01:38:15;64148.03;;;-137.53
64904;BMP280;51401;48.882;12.598;2023-10-19T01:40:40;64148.03;;;-137.53
64904;BMP280;51401;48.882;12.598;2023-10-19T01:43:14;64148.03;;;-137.53
64904;BMP280;51401;48.882;12.598;2023-10-19T01:45:46;64146.03;;;-137.53
64904;BMP280;51401;48.882;12.598;2023-10-19T01:48:12;64146.03;;;-137.53
64904;BMP280;51401;48.882;12.598;2023-10-19T01:50:38;64150.03;;;-137.53
64904;BMP280;51401;48.882;12.598;2023-10-19T01:53:07;64146.03;;;-137.53
64904;BMP280;51401;48.882;12.598;2023-10-19T01:55:42;64146.03;;;-137.53
64904;BMP280;51401;48.882;12.598;2023-10-19T01:58:08;64146.03;;;-137.53
64904;BMP280;51401;48.882;12.598;2023-10-19T02:00:34;64144.06;;;-137.53
64904;BMP280;51401;48.882;12.598;2023-10-19T02:03:11;64148.03;;;-137.53
64904;BMP280;51401;48.882;12.598;2023-10-19T02:05:36;64148.03;;;-137.53
64904;BMP280;51401;48.882;12.598;2023-10-19T02:08:06;64146.03;;;-137.53
64904;BMP280;51401;48.882;12.598;2023-10-19T02:10:35;64148.03;;;-137.53
64904;BMP280;51401;48.882;12.598;2023-10-19T02:13:01;64146.03;;;-137.53
64904;BMP280;51401;48.882;12.598;2023-10-19T02:15:32;64148.03;;;-137.53
64904;BMP280;51401;48.882;12.598;2023-10-19T02:17:59;64146.03;;;-137.53
64904;BMP280;51401;48.882;12.598;2023-10-19T02:20:27;64148.03;;;-137.53
64904;BMP280;51401;48.882;12.598;2023-10-19T02:22:52;64150.03;;;-137.53
64904;BMP280;51401;48.882;12.598;2023-10-19T02:25:17;64146.03;;;-137.53
64904;BMP280;51401;48.882;12.598;2023-10-19T02:27:43;64148.03;;;-137.53
64904;BMP280;51401;48.882;12.598;2023-10-19T02:30:10;64148.03;;;-137.53
64904;BMP280;51401;48.882;12.598;2023-10-19T02:32:36;64144.06;;;-137.53
64904;BMP280;51401;48.882;12.598;2023-10-19T02:35:02;64146.03;;;-137.53
64904;BMP280;51401;48.882;12.598;2023-10-19T02:37:28;64148.03;;;-137.53
64904;BMP280;51401;48.882;12.598;2023-10-19T02:39:53;64144.06;;;-137.53
64904;BMP280;51401;48.882;12.598;2023-10-19T02:42:18;64146.03;;;-137.53
64904;BMP280;51401;48.882;12.598;2023-10-19T02:44:47;64146.03;;;-137.53
64904;BMP280;51401;48.882;12.598;2023-10-19T02:47:12;64148.03;;;-137.53
64904;BMP280;51401;48.882;12.598;2023-10-19T02:49:38;64148.03;;;-137.53
64904;BMP280;51401;48.882;12.598;2023-10-19T02:52:04;64148.03;;;-137.53
64904;BMP280;51401;48.882;12.598;2023-10-19T02:54:30;64148.03;;;-137.53
64904;BMP280;51401;48.882;12.598;2023-10-19T02:56:58;64148.03;;;-137.53
64904;BMP280;51401;48.882;12.598;2023-10-19T02:59:25;64150.03;;;-137.53
64904;BMP280;51401;48.882;12.598;2023-10-19T03:02:01;64146.03;;;-137.53
64904;BMP280;51401;48.882;12.598;2023-10-19T03:04:32;64148.03;;;-137.53
64904;BMP280;51401;48.882;12.598;2023-10-19T03:07:02;64148.03;;;-137.53
64904;BMP280;51401;48.882;12.598;2023-10-19T03:09:28;64148.03;;;-137.53
64904;BMP280;51401;48.882;12.598;2023-10-19T03:11:56;64148.03;;;-137.53
64904;BMP280;51401;48.882;12.598;2023-10-19T03:14:25;64148.03;;;-137.53
64904;BMP280;51401;48.882;12.598;2023-10-19T03:16:51;64146.03;;;-137.53
64904;BMP280;51401;48.882;12.598;2023-10-19T03:19:17;64146.03;;;-137.53
64904;BMP280;51401;48.882;12.598;2023-10-19T03:21:42;64148.03;;;-137.53
64904;BMP280;51401;48.882;12.598;2023-10-19T03:24:11;64146.03;;;-137.53
64904;BMP280;51401;48.882;12.598;2023-10-19T03:26:51;64144.06;;;-137.53
64904;BMP280;51401;48.882;12.598;2023-10-19T03:29:19;64148.03;;;-137.53
64904;BMP280;51401;48.882;12.598;2023-10-19T03:31:45;64146.03;;;-137.53
64904;BMP280;51401;48.882;12.598;2023-10-19T03:34:12;64148.03;;;-137.53
64904;BMP280;51401;48.882;12.598;2023-10-19T03:36:38;64146.03;;;-137.53
64904;BMP280;51401;48.882;12.598;2023-10-19T03:39:04;64144.06;;;-137.53
64904;BMP280;51401;48.882;12.598;2023-10-19T03:41:37;64146.03;;;-137.53
64904;BMP280;51401;48.882;12.598;2023-10-19T03:44:04;64150.03;;;-137.53
64904;BMP280;51401;48.882;12.598;2023-10-19T03:46:30;64144.06;;;-137.53
64904;BMP280;51401;48.882;12.598;2023-10-19T03:48:57;64144.06;;;-137.53
64904;BMP280;51401;48.882;12.598;2023-10-19T03:51:36;64146.03;;;-137.53
64904;BMP280;51401;48.882;12.598;2023-10-19T03:54:24;64150.03;;;-137.53
64904;BMP280;51401;48.882;12.598;2023-10-19T03:56:50;64148.03;;;-137.53
64904;BMP280;51401;48.882;12.598;2023-10-19T03:59:19;64144.06;;;-137.53
64904;BMP280;51401;48.882;12.598;2023-10-19T04:01:48;64152.00;;;-137.53
64904;BMP280;51401;48.882;12.598;2023-10-19T04:04:13;64150.03;;;-137.53
64904;BMP280;51401;48.882;12.598;2023-10-19T04:06:40;64146.03;;;-137.53
64904;BMP280;51401;48.882;12.598;2023-10-19T04:09:05;64148.03;;;-137.53
64904;BMP280;51401;48.882;12.598;2023-10-19T04:11:34;64146.03;;;-137.53
64904;BMP280;51401;48.882;12.598;2023-10-19T04:14:13;64148.03;;;-137.53
64904;BMP280;51401;48.882;12.598;2023-10-19T04:16:40;64146.03;;;-137.53
64904;BMP280;51401;48.882;12.598;2023-10-19T04:19:09;64148.03;;;-137.53
64904;BMP280;51401;48.882;12.598;2023-10-19T04:21:35;64146.03;;;-137.53
64904;BMP280;51401;48.882;12.598;2023-10-19T04:24:06;64146.03;;;-137.53
64904;BMP280;51401;48.882;12.598;2023-10-19T04:26:35;64144.06;;;-137.53
64904;BMP280;51401;48.882;12.598;2023-10-19T04:29:05;64146.03;;;-137.53
64904;BMP280;51401;48.882;12.598;2023-10-19T04:31:41;64148.03;;;-137.53
64904;BMP280;51401;48.882;12.598;2023-10-19T04:34:15;64144.06;;;-137.53
64904;BMP280;51401;48.882;12.598;2023-10-19T04:36:41;64148.03;;;-137.53
64904;BMP280;51401;48.882;12.598;2023-10-19T04:39:08;64150.03;;;-137.53
64904;BMP280;51401;48.882;12.598;2023-10-19T04:41:37;64146.03;;;-137.53
64904;BMP280;51401;48.882;12.598;2023-10-19T04:44:02;64148.03;;;-137.53
64904;BMP280;51401;48.882;12.598;2023-10-19T04:46:28;64146.03;;;-137.53
64904;BMP280;51401;48.882;12.598;2023-10-19T04:48:54;64144.06;;;-137.53
64904;BMP280;51401;48.882;12.598;2023-10-19T04:51:19;64146.03;;;-137.53
64904;BMP280;51401;48.882;12.598;2023-10-19T04:53:44;64148.03;;;-137.53
64904;BMP280;51401;48.882;12.598;2023-10-19T04:56:10;64148.03;;;-137.53
64904;BMP280;51401;48.882;12.598;2023-10-19T04:58:37;64144.06;;;-137.53
64904;BMP280;51401;48.882;12.598;2023-10-19T05:01:03;64148.03;;;-137.53
64904;BMP280;51401;48.882;12.598;2023-10-19T05:03:29;64144.06;;;-137.53
64904;BMP280;51401;48.882;12.598;2023-10-19T05:05:54;64148.03;;;-137.53
64904;BMP280;51401;48.882;12.598;2023-10-19T05:08:20;64144.06;;;-137.53
64904;BMP280;51401;48.882;12.598;2023-10-19T05:10:49;64148.03;;;-137.53
64904;BMP280;51401;48.882;12.598;2023-10-19T05:13:14;64146.03;;;-137.53
64904;BMP280;51401;48.882;12.598;2023-10-19T05:15:41;64148.03;;;-137.53
64904;BMP280;51401;48.882;12.598;2023-10-19T05:18:07;64144.06;;;-137.53
64904;BMP280;51401;48.882;12.598;2023-10-19T05:20:33;64146.03;;;-137.53
64904;BMP280;51401;48.882;12.598;2023-10-19T05:23:01;64148.03;;;-137.53
64904;BMP280;51401;48.882;12.598;2023-10-19T05:25:26;64144.06;;;-137.53
64904;BMP280;51401;48.882;12.598;2023-10-19T05:27:52;64146.03;;;-137.53
64904;BMP280;51401;48.882;12.598;2023-10-19T05:30:17;64144.06;;;-137.53
64904;BMP280;51401;48.882;12.598;2023-10-19T05:32:43;64150.03;;;-137.53
64904;BMP280;51401;48.882;12.598;2023-10-19T05:35:08;64144.06;;;-137.53
64904;BMP280;51401;48.882;12.598;2023-10-19T05:37:38;64148.03;;;-137.53
64904;BMP280;51401;48.882;12.598;2023-10-19T05:40:07;64148.03;;;-137.53
64904;BMP280;51401;48.882;12.598;2023-10-19T05:42:38;64148.03;;;-137.53
64904;BMP280;51401;48.882;12.598;2023-10-19T05:45:04;64146.03;;;-137.53
64904;BMP280;51401;48.882;12.598;2023-10-19T05:47:30;64148.03;;;-137.53
64904;BMP280;51401;48.882;12.598;2023-10-19T05:49:55;64148.03;;;-137.53
64904;BMP280;51401;48.882;12.598;2023-10-19T05:52:21;64152.00;;;-137.53
64904;BMP280;51401;48.882;12.598;2023-10-19T05:54:47;64146.03;;;-137.53
64904;BMP280;51401;48.882;12.598;2023-10-19T05:57:14;64144.06;;;-137.53
64904;BMP280;51401;48.882;12.598;2023-10-19T05:59:40;64144.06;;;-137.53
64904;BMP280;51401;48.882;12.598;2023-10-19T06:02:06;64144.06;;;-137.53
64904;BMP280;51401;48.882;12.598;2023-10-19T06:04:32;64148.03;;;-137.53
64904;BMP280;51401;48.882;12.598;2023-10-19T06:06:58;64144.06;;;-137.53
64904;BMP280;51401;48.882;12.598;2023-10-19T06:09:23;64144.06;;;-137.53
64904;BMP280;51401;48.882;12.598;2023-10-19T06:11:54;64148.03;;;-137.53
64904;BMP280;51401;48.882;12.598;2023-10-19T06:14:20;64146.03;;;-137.53
64904;BMP280;51401;48.882;12.598;2023-10-19T06:16:45;64148.03;;;-137.53
64904;BMP280;51401;48.882;12.598;2023-10-19T06:19:10;64144.06;;;-137.53
64904;BMP280;51401;48.882;12.598;2023-10-19T06:21:36;64146.03;;;-137.53
64904;BMP280;51401;48.882;12.598;2023-10-19T06:24:01;64144.06;;;-137.53
64904;BMP280;51401;48.882;12.598;2023-10-19T06:26:28;64148.03;;;-137.53
64904;BMP280;51401;48.882;12.598;2023-10-19T06:28:53;64148.03;;;-137.53
64904;BMP280;51401;48.882;12.598;2023-10-19T06:31:24;64144.06;;;-137.53
64904;BMP280;51401;48.882;12.598;2023-10-19T06:33:49;64148.03;;;-137.53
64904;BMP280;51401;48.882;12.598;2023-10-19T06:36:14;64146.03;;;-137.53
64904;BMP280;51401;48.882;12.598;2023-10-19T06:38:39;64148.03;;;-137.53
64904;BMP280;51401;48.882;12.598;2023-10-19T06:41:12;64146.03;;;-137.53
64904;BMP280;51401;48.882;12.598;2023-10-19T06:43:41;64148.03;;;-137.53
64904;BMP280;51401;48.882;12.598;2023-10-19T06:46:06;64144.06;;;-137.53
64904;BMP280;51401;48.882;12.598;2023-10-19T06:48:32;64148.03;;;-137.53
64904;BMP280;51401;48.882;12.598;2023-10-19T06:50:58;64144.06;;;-137.53
64904;BMP280;51401;48.882;12.598;2023-10-19T06:53:24;64144.06;;;-137.53
64904;BMP280;51401;48.882;12.598;2023-10-19T06:55:49;64142.06;;;-137.53
64904;BMP280;51401;48.882;12.598;2023-10-19T06:58:15;64146.03;;;-137.53
64904;BMP280;51401;48.882;12.598;2023-10-19T07:00:44;64142.06;;;-137.53
64904;BMP280;51401;48.882;12.598;2023-10-19T07:03:10;64140.09;;;-137.53
64904;BMP280;51401;48.882;12.598;2023-10-19T07:05:35;64142.06;;;-137.53
64904;BMP280;51401;48.882;12.598;2023-10-19T07:08:01;64140.09;;;-137.53
64904;BMP280;51401;48.882;12.598;2023-10-19T07:10:27;64142.06;;;-137.53
64904;BMP280;51401;48.882;12.598;2023-10-19T07:12:55;64140.09;;;-137.53
64904;BMP280;51401;48.882;12.598;2023-10-19T07:15:21;64140.09;;;-137.53
64904;BMP280;51401;48.882;12.598;2023-10-19T07:17:51;64142.06;;;-137.53
64904;BMP280;51401;48.882;12.598;2023-10-19T07:20:24;64144.06;;;-137.53
64904;BMP280;51401;48.882;12.598;2023-10-19T07:23:01;64140.09;;;-137.53
64904;BMP280;51401;48.882;12.598;2023-10-19T07:25:33;64142.06;;;-137.53
64904;BMP280;51401;48.882;12.598;2023-10-19T07:28:08;64144.06;;;-137.53
64904;BMP280;51401;48.882;12.598;2023-10-19T07:30:34;64136.13;;;-137.53
64904;BMP280;51401;48.882;12.598;2023-10-19T07:33:00;64140.09;;;-137.53
64904;BMP280;51401;48.882;12.598;2023-10-19T07:35:28;64140.09;;;-137.53
64904;BMP280;51401;48.882;12.598;2023-10-19T07:37:56;64142.06;;;-137.53
64904;BMP280;51401;48.882;12.598;2023-10-19T07:40:22;64142.06;;;-137.53
64904;BMP280;51401;48.882;12.598;2023-10-19T07:42:49;64146.03;;;-137.53
64904;BMP280;51401;48.882;12.598;2023-10-19T07:45:17;64142.06;;;-137.53
64904;BMP280;51401;48.882;12.598;2023-10-19T07:47:42;64144.06;;;-137.53
64904;BMP280;51401;48.882;12.598;2023-10-19T07:50:09;64142.06;;;-137.53
64904;BMP280;51401;48.882;12.598;2023-10-19T07:52:44;64140.09;;;-137.53
64904;BMP280;51401;48.882;12.598;2023-10-19T07:55:11;64140.09;;;-137.53
64904;BMP280;51401;48.882;12.598;2023-10-19T07:57:38;64140.09;;;-137.53
64904;BMP280;51401;48.882;12.598;2023-10-19T08:00:06;64136.13;;;-137.53
64904;BMP280;51401;48.882;12.598;2023-10-19T08:02:33;64138.09;;;-137.53
64904;BMP280;51401;48.882;12.598;2023-10-19T08:05:00;64138.09;;;-137.53
64904;BMP280;51401;48.882;12.598;2023-10-19T08:07:27;64134.13;;;-137.53
64904;BMP280;51401;48.882;12.598;2023-10-19T08:09:53;64132.16;;;-137.53
64904;BMP280;51401;48.882;12.598;2023-10-19T08:12:20;64140.09;;;-137.53
64904;BMP280;51401;48.882;12.598;2023-10-19T08:14:52;64136.13;;;-137.53
64904;BMP280;51401;48.882;12.598;2023-10-19T08:17:18;64138.09;;;-137.53
64904;BMP280;51401;48.882;12.598;2023-10-19T08:19:43;64138.09;;;-137.53
64904;BMP280;51401;48.882;12.598;2023-10-19T08:22:09;64136.13;;;-137.53
64904;BMP280;51401;48.882;12.598;2023-10-19T08:24:37;64138.09;;;-137.53
64904;BMP280;51401;48.882;12.598;2023-10-19T08:27:03;64136.13;;;-137.53
64904;BMP280;51401;48.882;12.598;2023-10-19T08:29:31;64138.09;;;-137.53
64904;BMP280;51401;48.882;12.598;2023-10-19T08:31:57;64138.09;;;-137.53
64904;BMP280;51401;48.882;12.598;2023-10-19T08:34:22;64136.13;;;-137.53
64904;BMP280;51401;48.882;12.598;2023-10-19T08:36:49;64138.09;;;-137.53
64904;BMP280;51401;48.882;12.598;2023-10-19T08:39:15;64136.13;;;-137.53
64904;BMP280;51401;48.882;12.598;2023-10-19T08:41:40;64136.13;;;-137.53
64904;BMP280;51401;48.882;12.598;2023-10-19T08:44:07;64136.13;;;-137.53
64904;BMP280;51401;48.882;12.598;2023-10-19T08:46:43;64136.13;;;-137.53
64904;BMP280;51401;48.882;12.598;2023-10-19T08:49:11;64138.09;;;-137.53
64904;BMP280;51401;48.882;12.598;2023-10-19T08:51:38;64136.13;;;-137.53
64904;BMP280;51401;48.882;12.598;2023-10-19T08:54:04;64134.13;;;-137.53
64904;BMP280;51401;48.882;12.598;2023-10-19T08:56:31;64132.16;;;-137.53
64904;BMP280;51401;48.882;12.598;2023-10-19T08:58:59;64136.13;;;-137.53
64904;BMP280;51401;48.882;12.598;2023-10-19T09:01:27;64136.13;;;-137.53
64904;BMP280;51401;48.882;12.598;2023-10-19T09:03:53;64132.16;;;-137.53
64904;BMP280;51401;48.882;12.598;2023-10-19T09:06:20;64134.13;;;-137.53
64904;BMP280;51401;48.882;12.598;2023-10-19T09:08:47;64134.13;;;-137.53
64904;BMP280;51401;48.882;12.598;2023-10-19T09:11:13;64132.16;;;-137.53
64904;BMP280;51401;48.882;12.598;2023-10-19T09:13:43;64134.13;;;-137.53
64904;BMP280;51401;48.882;12.598;2023-10-19T09:16:16;64132.16;;;-137.53
64904;BMP280;51401;48.882;12.598;2023-10-19T09:18:42;64132.16;;;-137.53
64904;BMP280;51401;48.882;12.598;2023-10-19T09:21:08;64132.16;;;-137.53
64904;BMP280;51401;48.882;12.598;2023-10-19T09:23:38;64136.13;;;-137.53
64904;BMP280;51401;48.882;12.598;2023-10-19T09:26:04;64136.13;;;-137.53
64904;BMP280;51401;48.882;12.598;2023-10-19T09:28:31;64134.13;;;-137.53
64904;BMP280;51401;48.882;12.598;2023-10-19T09:31:00;64132.16;;;-137.53
64904;BMP280;51401;48.882;12.598;2023-10-19T09:33:26;64132.16;;;-137.53
64904;BMP280;51401;48.882;12.598;2023-10-19T09:35:52;64134.13;;;-137.53
64904;BMP280;51401;48.882;12.598;2023-10-19T09:38:19;64136.13;;;-137.53
64904;BMP280;51401;48.882;12.598;2023-10-19T09:40:51;64134.13;;;-137.53
64904;BMP280;51401;48.882;12.598;2023-10-19T09:43:29;64134.13;;;-137.53
64904;BMP280;51401;48.882;12.598;2023-10-19T09:45:56;64134.13;;;-137.53
64904;BMP280;51401;48.882;12.598;2023-10-19T09:48:25;64136.13;;;-137.53
64904;BMP280;51401;48.882;12.598;2023-10-19T09:50:53;64132.16;;;-137.53
64904;BMP280;51401;48.882;12.598;2023-10-19T09:53:22;64132.16;;;-137.53
64904;BMP280;51401;48.882;12.598;2023-10-19T09:55:49;64136.13;;;-137.53
64904;BMP280;51401;48.882;12.598;2023-10-19T09:58:17;64136.13;;;-137.53
64904;BMP280;51401;48.882;12.598;2023-10-19T10:00:47;64132.16;;;-137.53
64904;BMP280;51401;48.882;12.598;2023-10-19T10:03:41;64132.16;;;-137.53
64904;BMP280;51401;48.882;12.598;2023-10-19T10:06:07;64132.16;;;-137.53
64904;BMP280;51401;48.882;12.598;2023-10-19T10:08:35;64134.13;;;-137.53
64904;BMP280;51401;48.882;12.598;2023-10-19T10:11:13;64132.16;;;-137.53
64904;BMP280;51401;48.882;12.598;2023-10-19T10:13:41;64132.16;;;-137.53
64904;BMP280;51401;48.882;12.598;2023-10-19T10:16:07;64132.16;;;-137.53
64904;BMP280;51401;48.882;12.598;2023-10-19T10:18:34;64132.16;;;-137.53
64904;BMP280;51401;48.882;12.598;2023-10-19T10:24:25;64132.16;;;-137.53
64904;BMP280;51401;48.882;12.598;2023-10-19T10:27:00;64134.13;;;-137.53
64904;BMP280;51401;48.882;12.598;2023-10-19T10:32:48;64136.13;;;-137.53
64904;BMP280;51401;48.882;12.598;2023-10-19T10:38:20;64132.16;;;-137.53
64904;BMP280;51401;48.882;12.598;2023-10-19T10:40:47;64132.16;;;-137.53
64904;BMP280;51401;48.882;12.598;2023-10-19T10:43:32;64132.16;;;-137.53
64904;BMP280;51401;48.882;12.598;2023-10-19T10:46:05;64132.16;;;-137.53
64904;BMP280;51401;48.882;12.598;2023-10-19T10:48:30;64134.13;;;-137.53
64904;BMP280;51401;48.882;12.598;2023-10-19T10:50:56;64128.19;;;-137.53
64904;BMP280;51401;48.882;12.598;2023-10-19T10:53:23;64132.16;;;-137.53
64904;BMP280;51401;48.882;12.598;2023-10-19T10:55:50;64130.16;;;-137.53
64904;BMP280;51401;48.882;12.598;2023-10-19T10:58:16;64132.16;;;-137.53
64904;BMP280;51401;48.882;12.598;2023-10-19T11:00:42;64132.16;;;-137.53
64904;BMP280;51401;48.882;12.598;2023-10-19T11:03:10;64132.16;;;-137.53
64904;BMP280;51401;48.882;12.598;2023-10-19T11:05:37;64132.16;;;-137.53
64904;BMP280;51401;48.882;12.598;2023-10-19T11:08:23;64130.16;;;-137.53
64904;BMP280;51401;48.882;12.598;2023-10-19T11:10:48;64132.16;;;-137.53
64904;BMP280;51401;48.882;12.598;2023-10-19T11:13:15;64132.16;;;-137.53
64904;BMP280;51401;48.882;12.598;2023-10-19T11:15:51;64132.16;;;-137.53
64904;BMP280;51401;48.882;12.598;2023-10-19T11:18:40;64130.16;;;-137.53
64904;BMP280;51401;48.882;12.598;2023-10-19T11:21:14;64130.16;;;-137.53
64904;BMP280;51401;48.882;12.598;2023-10-19T11:23:48;64132.16;;;-137.53
64904;BMP280;51401;48.882;12.598;2023-10-19T11:26:19;64132.16;;;-137.53
64904;BMP280;51401;48.882;12.598;2023-10-19T11:28:45;64132.16;;;-137.53
64904;BMP280;51401;48.882;12.598;2023-10-19T11:31:19;64130.16;;;-137.53
64904;BMP280;51401;48.882;12.598;2023-10-19T11:33:47;64132.16;;;-137.53
64904;BMP280;51401;48.882;12.598;2023-10-19T11:36:19;64134.13;;;-137.53
64904;BMP280;51401;48.882;12.598;2023-10-19T11:38:47;64132.16;;;-137.53
64904;BMP280;51401;48.882;12.598;2023-10-19T11:41:14;64132.16;;;-137.53
64904;BMP280;51401;48.882;12.598;2023-10-19T11:43:41;64132.16;;;-137.53
64904;BMP280;51401;48.882;12.598;2023-10-19T11:46:07;64136.13;;;-137.53
64904;BMP280;51401;48.882;12.598;2023-10-19T11:48:33;64134.13;;;-137.53
64904;BMP280;51401;48.882;12.598;2023-10-19T11:51:00;64132.16;;;-137.53
64904;BMP280;51401;48.882;12.598;2023-10-19T11:53:29;64132.16;;;-137.53
64904;BMP280;51401;48.882;12.598;2023-10-19T11:55:58;64132.16;;;-137.53
64904;BMP280;51401;48.882;12.598;2023-10-19T11:58:23;64134.13;;;-137.53
64904;BMP280;51401;48.882;12.598;2023-10-19T12:00:49;64130.16;;;-137.53
64904;BMP280;51401;48.882;12.598;2023-10-19T12:03:14;64136.13;;;-137.53
64904;BMP280;51401;48.882;12.598;2023-10-19T12:05:40;64134.13;;;-137.53
64904;BMP280;51401;48.882;12.598;2023-10-19T12:08:07;64132.16;;;-137.53
64904;BMP280;51401;48.882;12.598;2023-10-19T12:10:32;64128.19;;;-137.53
64904;BMP280;51401;48.882;12.598;2023-10-19T12:13:01;64132.16;;;-137.53
64904;BMP280;51401;48.882;12.598;2023-10-19T12:15:27;64132.16;;;-137.53
64904;BMP280;51401;48.882;12.598;2023-10-19T12:17:52;64130.16;;;-137.53
64904;BMP280;51401;48.882;12.598;2023-10-19T12:20:19;64134.13;;;-137.53
64904;BMP280;51401;48.882;12.598;2023-10-19T12:22:47;64130.16;;;-137.53
64904;BMP280;51401;48.882;12.598;2023-10-19T12:25:13;64132.16;;;-137.53
64904;BMP280;51401;48.882;12.598;2023-10-19T12:27:38;64132.16;;;-137.53
64904;BMP280;51401;48.882;12.598;2023-10-19T12:30:04;64128.19;;;-137.53
64904;BMP280;51401;48.882;12.598;2023-10-19T12:32:42;64130.16;;;-137.53
64904;BMP280;51401;48.882;12.598;2023-10-19T12:35:07;64134.13;;;-137.53
64904;BMP280;51401;48.882;12.598;2023-10-19T12:37:38;64130.16;;;-137.53
64904;BMP280;51401;48.882;12.598;2023-10-19T12:40:14;64132.16;;;-137.53
64904;BMP280;51401;48.882;12.598;2023-10-19T12:42:52;64132.16;;;-137.53
64904;BMP280;51401;48.882;12.598;2023-10-19T12:45:21;64132.16;;;-137.53
64904;BMP280;51401;48.882;12.598;2023-10-19T12:47:46;64130.16;;;-137.53
64904;BMP280;51401;48.882;12.598;2023-10-19T12:50:12;64132.16;;;-137.53
64904;BMP280;51401;48.882;12.598;2023-10-19T12:52:38;64128.19;;;-137.53
64904;BMP280;51401;48.882;12.598;2023-10-19T12:55:06;64130.16;;;-137.53
64904;BMP280;51401;48.882;12.598;2023-10-19T12:57:32;64134.13;;;-137.53
64904;BMP280;51401;48.882;12.598;2023-10-19T12:59:58;64130.16;;;-137.53
64904;BMP280;51401;48.882;12.598;2023-10-19T13:02:27;64130.16;;;-137.53
64904;BMP280;51401;48.882;12.598;2023-10-19T13:04:55;64132.16;;;-137.53
64904;BMP280;51401;48.882;12.598;2023-10-19T13:07:20;64130.16;;;-137.53
64904;BMP280;51401;48.882;12.598;2023-10-19T13:09:46;64128.19;;;-137.53
64904;BMP280;51401;48.882;12.598;2023-10-19T13:12:13;64130.16;;;-137.53
64904;BMP280;51401;48.882;12.598;2023-10-19T13:14:38;64134.13;;;-137.53
64904;BMP280;51401;48.882;12.598;2023-10-19T13:17:04;64132.16;;;-137.53
64904;BMP280;51401;48.882;12.598;2023-10-19T13:19:29;64130.16;;;-137.53
64904;BMP280;51401;48.882;12.598;2023-10-19T13:21:54;64132.16;;;-137.53
64904;BMP280;51401;48.882;12.598;2023-10-19T13:24:19;64132.16;;;-137.53
64904;BMP280;51401;48.882;12.598;2023-10-19T13:26:46;64134.13;;;-137.53
64904;BMP280;51401;48.882;12.598;2023-10-19T13:29:13;64128.19;;;-137.53
64904;BMP280;51401;48.882;12.598;2023-10-19T13:31:40;64132.16;;;-137.53
64904;BMP280;51401;48.882;12.598;2023-10-19T13:34:05;64134.13;;;-137.53
64904;BMP280;51401;48.882;12.598;2023-10-19T13:36:35;64132.16;;;-137.53
64904;BMP280;51401;48.882;12.598;2023-10-19T13:39:01;64130.16;;;-137.53
64904;BMP280;51401;48.882;12.598;2023-10-19T13:41:26;64132.16;;;-137.53
64904;BMP280;51401;48.882;12.598;2023-10-19T13:43:52;64136.13;;;-137.53
64904;BMP280;51401;48.882;12.598;2023-10-19T13:46:17;64132.16;;;-137.53
64904;BMP280;51401;48.882;12.598;2023-10-19T13:48:42;64132.16;;;-137.53
64904;BMP280;51401;48.882;12.598;2023-10-19T13:51:08;64130.16;;;-137.53